createdAt,value
2017-08-02T00:00:44.316Z,92.90
2017-08-02T00:03:10.245Z,92.80
2017-08-02T00:05:36.182Z,92.70
2017-08-02T00:08:02.805Z,92.80
2017-08-02T00:10:29.137Z,92.70
2017-08-02T00:12:55.061Z,92.60
2017-08-02T00:15:21.032Z,92.60
2017-08-02T00:17:46.974Z,92.80
2017-08-02T00:20:13.843Z,92.30
2017-08-02T00:22:39.772Z,92.50
2017-08-02T00:25:05.913Z,92.40
2017-08-02T00:27:31.922Z,92.40
2017-08-02T00:29:57.925Z,92.50
2017-08-02T00:32:23.883Z,92.80
2017-08-02T00:34:49.877Z,93.00
2017-08-02T00:37:15.896Z,92.90
2017-08-02T00:39:42.095Z,92.70
2017-08-02T00:42:08.033Z,92.60
2017-08-02T00:44:33.964Z,92.50
2017-08-02T00:46:59.921Z,92.40
2017-08-02T00:49:25.914Z,92.50
2017-08-02T00:51:51.906Z,92.40
2017-08-02T00:54:17.836Z,92.50
2017-08-02T00:56:43.801Z,92.60
2017-08-02T00:59:09.780Z,92.70
2017-08-02T01:01:35.757Z,92.70
2017-08-02T01:04:01.717Z,92.70
2017-08-02T01:06:27.692Z,92.80
2017-08-02T01:08:53.643Z,92.80
2017-08-02T01:11:19.638Z,92.70
2017-08-02T01:13:45.602Z,92.70
2017-08-02T01:16:11.732Z,92.70
2017-08-02T01:18:37.679Z,92.80
2017-08-02T01:21:03.681Z,92.90
2017-08-02T01:23:29.650Z,92.90
2017-08-02T01:25:55.601Z,93.00
2017-08-02T01:28:21.554Z,93.10
2017-08-02T01:30:47.546Z,93.00
2017-08-02T01:33:13.617Z,93.20
2017-08-02T01:35:40.544Z,93.20
2017-08-02T01:38:07.236Z,93.40
2017-08-02T01:40:33.203Z,93.40
2017-08-02T01:42:59.133Z,93.40
2017-08-02T01:45:25.085Z,93.40
2017-08-02T01:47:51.052Z,93.40
2017-08-02T01:50:17.010Z,93.40
2017-08-02T01:52:43.695Z,93.20
2017-08-02T01:55:09.746Z,93.20
2017-08-02T01:57:36.481Z,93.20
2017-08-02T02:00:02.523Z,93.10
2017-08-02T02:02:29.243Z,93.70
2017-08-02T02:04:55.168Z,93.70
2017-08-02T02:07:21.173Z,93.60
2017-08-02T02:09:47.111Z,93.50
2017-08-02T02:12:13.074Z,93.20
2017-08-02T02:14:39.771Z,93.30
2017-08-02T02:17:05.730Z,93.40
2017-08-02T02:19:31.717Z,93.40
2017-08-02T02:21:58.405Z,93.50
2017-08-02T02:24:24.363Z,93.40
2017-08-02T02:26:50.366Z,93.40
2017-08-02T02:29:16.327Z,93.30
2017-08-02T02:31:43.468Z,93.40
2017-08-02T02:34:10.144Z,93.30
2017-08-02T02:36:36.617Z,93.20
2017-08-02T02:39:03.172Z,93.40
2017-08-02T02:41:29.148Z,93.40
2017-08-02T02:43:55.972Z,93.50
2017-08-02T02:46:21.936Z,93.70
2017-08-02T02:48:48.744Z,93.60
2017-08-02T02:51:14.722Z,94.20
2017-08-02T02:53:41.567Z,93.90
2017-08-02T02:56:07.503Z,94.00
2017-08-02T02:58:33.507Z,94.00
2017-08-02T03:01:00.189Z,94.20
2017-08-02T03:03:26.181Z,94.10
2017-08-02T03:05:52.188Z,94.10
2017-08-02T03:08:18.878Z,94.10
2017-08-02T03:10:44.818Z,94.00
2017-08-02T03:13:10.773Z,94.00
2017-08-02T03:15:36.740Z,94.10
2017-08-02T03:18:03.673Z,94.30
2017-08-02T03:20:29.614Z,94.30
2017-08-02T03:22:55.655Z,94.30
2017-08-02T03:25:21.588Z,94.40
2017-08-02T03:27:47.539Z,94.50
2017-08-02T03:30:13.645Z,94.50
2017-08-02T03:32:39.891Z,94.40
2017-08-02T03:35:06.805Z,94.40
2017-08-02T03:37:32.808Z,94.40
2017-08-02T03:39:58.883Z,94.60
2017-08-02T03:42:24.823Z,94.20
2017-08-02T03:44:50.828Z,94.30
2017-08-02T03:47:16.824Z,94.40
2017-08-02T03:49:44.479Z,94.60
2017-08-02T03:52:10.427Z,94.60
2017-08-02T03:54:36.429Z,94.60
2017-08-02T03:57:04.568Z,94.20
2017-08-02T03:59:30.522Z,94.10
2017-08-02T04:01:56.463Z,94.10
2017-08-02T04:04:23.291Z,94.20
2017-08-02T04:06:50.058Z,94.30
2017-08-02T04:09:16.008Z,94.30
2017-08-02T04:11:41.972Z,94.30
2017-08-02T04:14:09.414Z,94.40
2017-08-02T04:16:36.167Z,94.50
2017-08-02T04:19:02.914Z,95.00
2017-08-02T04:21:28.864Z,94.60
2017-08-02T04:23:56.014Z,94.90
2017-08-02T04:26:21.977Z,95.00
2017-08-02T04:28:47.933Z,95.10
2017-08-02T04:31:13.929Z,95.30
2017-08-02T04:33:39.876Z,95.00
2017-08-02T04:36:05.886Z,95.20
2017-08-02T04:38:31.818Z,95.20
2017-08-02T04:40:57.776Z,95.20
2017-08-02T04:43:24.144Z,95.00
2017-08-02T04:45:50.215Z,95.10
2017-08-02T04:48:16.160Z,95.00
2017-08-02T04:50:42.948Z,95.20
2017-08-02T04:53:08.870Z,95.30
2017-08-02T04:55:35.043Z,95.30
2017-08-02T04:58:01.040Z,95.40
2017-08-02T05:00:27.104Z,95.60
2017-08-02T05:02:53.700Z,96.00
2017-08-02T05:05:19.653Z,96.20
2017-08-02T05:07:45.573Z,96.40
2017-08-02T05:10:11.627Z,96.50
2017-08-02T05:12:37.559Z,96.30
2017-08-02T05:15:05.070Z,95.70
2017-08-02T05:17:31.064Z,95.70
2017-08-02T05:19:57.748Z,95.60
2017-08-02T05:22:23.715Z,95.60
2017-08-02T05:24:49.668Z,95.40
2017-08-02T05:27:16.742Z,95.40
2017-08-02T05:29:42.722Z,95.50
2017-08-02T05:32:08.711Z,95.40
2017-08-02T05:34:34.726Z,95.30
2017-08-02T05:37:01.375Z,95.30
2017-08-02T05:39:27.309Z,95.20
2017-08-02T05:41:53.295Z,95.50
2017-08-02T05:44:19.222Z,95.90
2017-08-02T05:46:45.159Z,96.10
2017-08-02T05:49:11.148Z,96.10
2017-08-02T05:51:37.071Z,96.00
2017-08-02T05:54:03.683Z,95.60
2017-08-02T05:56:29.896Z,95.20
2017-08-02T05:58:55.829Z,94.90
2017-08-02T06:01:21.789Z,94.60
2017-08-02T06:03:48.516Z,94.50
2017-08-02T06:06:14.480Z,94.40
2017-08-02T06:08:40.714Z,94.40
2017-08-02T06:11:06.683Z,94.10
2017-08-02T06:13:33.404Z,94.30
2017-08-02T06:15:59.347Z,94.30
2017-08-02T06:18:25.300Z,94.20
2017-08-02T06:20:51.384Z,93.80
2017-08-02T06:23:18.325Z,93.80
2017-08-02T06:25:44.261Z,93.80
2017-08-02T06:28:10.844Z,93.70
2017-08-02T06:30:36.823Z,93.60
2017-08-02T06:33:03.606Z,93.50
2017-08-02T06:35:29.731Z,93.40
2017-08-02T06:37:55.747Z,93.40
2017-08-02T06:40:22.694Z,93.30
2017-08-02T06:42:48.667Z,92.60
2017-08-02T06:45:16.522Z,92.60
2017-08-02T06:47:42.471Z,92.70
2017-08-02T06:50:08.521Z,92.80
2017-08-02T06:52:34.494Z,92.90
2017-08-02T06:55:00.555Z,92.90
2017-08-02T06:57:26.569Z,92.80
2017-08-02T06:59:52.516Z,92.50
2017-08-02T07:02:18.495Z,92.30
2017-08-02T07:04:44.455Z,91.80
2017-08-02T07:07:10.415Z,92.10
2017-08-02T07:09:36.357Z,92.20
2017-08-02T07:12:02.341Z,92.10
2017-08-02T07:14:28.323Z,92.00
2017-08-02T07:16:54.279Z,91.70
2017-08-02T07:19:20.256Z,91.20
2017-08-02T07:21:46.219Z,91.00
2017-08-02T07:24:12.404Z,90.80
2017-08-02T07:26:38.478Z,90.50
2017-08-02T07:29:04.686Z,91.00
2017-08-02T07:31:30.611Z,91.10
2017-08-02T07:33:56.571Z,90.60
2017-08-02T07:36:22.571Z,88.60
2017-08-02T07:38:48.744Z,88.80
2017-08-02T07:41:14.751Z,87.60
2017-08-02T07:43:40.756Z,87.50
2017-08-02T07:46:06.684Z,86.80
2017-08-02T07:48:32.661Z,85.60
2017-08-02T07:50:58.639Z,85.00
2017-08-02T07:53:25.333Z,84.40
2017-08-02T07:55:51.325Z,84.20
2017-08-02T07:58:17.306Z,84.10
2017-08-02T08:00:43.244Z,81.90
2017-08-02T08:03:09.920Z,83.00
2017-08-02T08:05:35.866Z,83.00
2017-08-02T08:08:01.840Z,83.70
2017-08-02T08:10:27.816Z,84.50
2017-08-02T08:12:53.777Z,84.50
2017-08-02T08:15:19.791Z,83.10
2017-08-02T08:17:45.781Z,82.80
2017-08-02T08:20:11.756Z,81.90
2017-08-02T08:22:37.748Z,82.00
2017-08-02T08:25:03.700Z,81.20
2017-08-02T08:27:29.631Z,81.00
2017-08-02T08:29:55.604Z,78.60
2017-08-02T08:32:21.543Z,78.60
2017-08-02T08:34:47.480Z,78.90
2017-08-02T08:37:13.443Z,74.80
2017-08-02T08:39:39.362Z,76.10
2017-08-02T08:42:05.315Z,74.10
2017-08-02T08:44:31.351Z,72.90
2017-08-02T08:46:57.353Z,73.00
2017-08-02T08:49:23.370Z,72.40
2017-08-02T08:51:49.373Z,73.50
2017-08-02T08:54:15.375Z,73.00
2017-08-02T08:56:41.335Z,72.10
2017-08-02T08:59:07.282Z,72.50
2017-08-02T09:01:33.201Z,71.90
2017-08-02T09:03:59.179Z,70.90
2017-08-02T09:06:25.129Z,71.40
2017-08-02T09:08:51.058Z,70.80
2017-08-02T09:11:16.981Z,70.80
2017-08-02T09:13:42.910Z,68.50
2017-08-02T09:16:08.943Z,68.90
2017-08-02T09:18:35.617Z,69.20
2017-08-02T09:21:01.579Z,69.20
2017-08-02T09:23:27.484Z,65.60
2017-08-02T09:25:53.429Z,64.90
2017-08-02T09:28:19.354Z,63.60
2017-08-02T09:30:45.283Z,64.20
2017-08-02T09:33:11.276Z,63.30
2017-08-02T09:35:37.215Z,64.10
2017-08-02T09:38:03.937Z,63.50
2017-08-02T09:40:29.853Z,63.40
2017-08-02T09:42:55.807Z,62.90
2017-08-02T09:45:21.728Z,62.90
2017-08-02T09:47:47.660Z,62.10
2017-08-02T09:50:13.639Z,60.70
2017-08-02T09:52:40.363Z,61.30
2017-08-02T09:55:06.307Z,61.20
2017-08-02T09:57:32.276Z,59.40
2017-08-02T09:59:58.210Z,58.40
2017-08-02T10:02:24.131Z,59.40
2017-08-02T10:04:50.076Z,59.80
2017-08-02T10:07:15.999Z,56.80
2017-08-02T10:09:41.942Z,56.30
2017-08-02T10:12:07.875Z,57.40
2017-08-02T10:14:33.829Z,57.30
2017-08-02T10:16:59.786Z,57.10
2017-08-02T10:19:25.756Z,57.60
2017-08-02T10:21:51.727Z,56.90
2017-08-02T10:24:17.659Z,56.10
2017-08-02T10:26:43.584Z,56.70
2017-08-02T10:29:09.530Z,56.60
2017-08-02T10:31:35.503Z,55.90
2017-08-02T10:34:01.641Z,55.90
2017-08-02T10:36:27.574Z,55.60
2017-08-02T10:38:53.500Z,54.20
2017-08-02T10:41:19.474Z,54.60
2017-08-02T10:43:45.492Z,54.10
2017-08-02T10:46:11.467Z,53.70
2017-08-02T10:48:37.426Z,54.50
2017-08-02T10:51:03.395Z,54.20
2017-08-02T10:53:29.367Z,54.00
2017-08-02T10:55:55.321Z,54.60
2017-08-02T10:58:21.235Z,54.80
2017-08-02T11:00:47.259Z,54.40
2017-08-02T11:03:13.221Z,54.70
2017-08-02T11:05:39.264Z,54.30
2017-08-02T11:08:05.255Z,54.80
2017-08-02T11:10:31.215Z,53.90
2017-08-02T11:12:57.159Z,54.40
2017-08-02T11:15:29.994Z,54.70
2017-08-02T11:17:55.978Z,54.70
2017-08-02T11:20:21.957Z,55.00
2017-08-02T11:22:48.014Z,54.10
2017-08-02T11:25:14.019Z,54.00
2017-08-02T11:27:41.082Z,52.60
2017-08-02T11:30:07.001Z,52.70
2017-08-02T11:32:32.952Z,52.70
2017-08-02T11:34:58.958Z,53.00
2017-08-02T11:37:25.460Z,52.10
2017-08-02T11:39:51.424Z,52.20
2017-08-02T11:42:18.155Z,52.20
2017-08-02T11:44:44.096Z,52.20
2017-08-02T11:47:10.092Z,51.40
2017-08-02T11:49:36.108Z,51.00
2017-08-02T11:52:02.089Z,51.70
2017-08-02T11:54:28.098Z,51.80
2017-08-02T11:56:54.045Z,51.90
2017-08-02T11:59:20.904Z,52.20
2017-08-02T12:01:46.885Z,52.40
2017-08-02T12:04:12.796Z,51.90
2017-08-02T12:06:39.472Z,50.90
2017-08-02T12:09:05.451Z,50.80
2017-08-02T12:11:31.387Z,50.30
2017-08-02T12:13:57.358Z,49.30
2017-08-02T12:16:24.414Z,49.40
2017-08-02T12:18:50.335Z,50.50
2017-08-02T12:21:16.258Z,49.40
2017-08-02T12:23:42.312Z,48.90
2017-08-02T12:26:08.311Z,49.50
2017-08-02T12:28:34.291Z,50.70
2017-08-02T12:31:00.244Z,51.40
2017-08-02T12:33:26.168Z,50.70
2017-08-02T12:35:52.129Z,49.70
2017-08-02T12:38:18.127Z,49.60
2017-08-02T12:40:44.885Z,49.30
2017-08-02T12:43:10.875Z,49.20
2017-08-02T12:45:37.575Z,48.70
2017-08-02T12:48:03.524Z,48.70
2017-08-02T12:50:29.556Z,48.90
2017-08-02T12:52:56.256Z,49.00
2017-08-02T12:55:22.224Z,48.90
2017-08-02T12:57:48.188Z,49.20
2017-08-02T13:00:14.181Z,48.50
2017-08-02T13:02:40.119Z,47.40
2017-08-02T13:05:06.115Z,47.20
2017-08-02T13:07:32.109Z,46.80
2017-08-02T13:09:58.011Z,46.40
2017-08-02T13:12:24.044Z,45.70
2017-08-02T13:14:49.997Z,44.70
2017-08-02T13:17:16.749Z,45.10
2017-08-02T13:19:42.703Z,45.10
2017-08-02T13:22:08.664Z,45.70
2017-08-02T13:24:35.367Z,46.80
2017-08-02T13:27:01.404Z,46.90
2017-08-02T13:29:27.382Z,47.00
2017-08-02T13:31:53.363Z,46.40
2017-08-02T13:34:19.295Z,47.30
2017-08-02T13:36:45.293Z,46.70
2017-08-02T13:39:11.224Z,46.20
2017-08-02T13:41:37.166Z,44.40
2017-08-02T13:44:03.170Z,45.40
2017-08-02T13:46:29.096Z,44.40
2017-08-02T13:48:55.049Z,43.80
2017-08-02T13:51:20.971Z,43.50
2017-08-02T13:53:46.896Z,43.70
2017-08-02T13:56:12.835Z,43.60
2017-08-02T13:58:38.802Z,43.50
2017-08-02T14:01:04.759Z,43.90
2017-08-02T14:03:30.765Z,43.60
2017-08-02T14:05:56.736Z,42.40
2017-08-02T14:08:22.702Z,42.00
2017-08-02T14:10:49.367Z,42.20
2017-08-02T14:13:15.364Z,42.20
2017-08-02T14:15:41.286Z,41.80
2017-08-02T14:18:08.267Z,41.30
2017-08-02T14:20:34.241Z,41.90
2017-08-02T14:23:00.211Z,43.00
2017-08-02T14:25:26.148Z,43.10
2017-08-02T14:27:52.103Z,42.50
2017-08-02T14:30:18.123Z,43.10
2017-08-02T14:32:44.867Z,42.60
2017-08-02T14:35:10.820Z,42.50
2017-08-02T14:37:36.778Z,42.10
2017-08-02T14:40:02.738Z,42.50
2017-08-02T14:42:29.531Z,40.80
2017-08-02T14:44:55.459Z,40.80
2017-08-02T14:47:21.407Z,40.30
2017-08-02T14:49:48.205Z,42.40
2017-08-02T14:52:14.183Z,42.30
2017-08-02T14:54:40.253Z,42.30
2017-08-02T14:57:06.206Z,41.70
2017-08-02T14:59:32.255Z,41.90
2017-08-02T15:01:58.280Z,41.40
2017-08-02T15:04:24.218Z,42.20
2017-08-02T15:06:50.163Z,41.90
2017-08-02T15:09:16.114Z,42.30
2017-08-02T15:11:42.092Z,42.90
2017-08-02T15:14:08.056Z,41.70
2017-08-02T15:16:34.042Z,41.40
2017-08-02T15:18:59.999Z,42.10
2017-08-02T15:21:26.039Z,43.00
2017-08-02T15:23:51.965Z,42.60
2017-08-02T15:26:17.919Z,42.20
2017-08-02T15:28:43.851Z,42.30
2017-08-02T15:31:09.772Z,43.30
2017-08-02T15:33:35.752Z,44.20
2017-08-02T15:36:01.773Z,44.30
2017-08-02T15:38:27.782Z,43.70
2017-08-02T15:40:53.706Z,44.50
2017-08-02T15:43:19.622Z,43.90
2017-08-02T15:45:45.627Z,42.60
2017-08-02T15:48:11.570Z,43.90
2017-08-02T15:50:38.241Z,44.90
2017-08-02T15:53:04.239Z,44.80
2017-08-02T15:55:30.363Z,43.80
2017-08-02T15:57:56.310Z,43.90
2017-08-02T16:00:22.333Z,44.20
2017-08-02T16:02:48.287Z,43.30
2017-08-02T16:05:14.473Z,43.50
2017-08-02T16:07:40.423Z,43.60
2017-08-02T16:10:06.375Z,43.10
2017-08-02T16:12:33.092Z,43.10
2017-08-02T16:14:59.081Z,42.40
2017-08-02T16:17:25.071Z,43.30
2017-08-02T16:19:51.037Z,43.40
2017-08-02T16:22:17.095Z,42.60
2017-08-02T16:24:43.043Z,43.60
2017-08-02T16:27:09.016Z,43.50
2017-08-02T16:29:35.084Z,44.00
2017-08-02T16:32:01.032Z,44.50
2017-08-02T16:34:27.522Z,46.00
2017-08-02T16:36:53.491Z,46.70
2017-08-02T16:39:19.472Z,46.70
2017-08-02T16:41:45.501Z,46.80
2017-08-02T16:44:11.471Z,46.10
2017-08-02T16:46:37.381Z,45.80
2017-08-02T16:49:03.312Z,46.10
2017-08-02T16:51:29.270Z,45.20
2017-08-02T16:53:56.055Z,45.00
2017-08-02T16:56:22.029Z,45.90
2017-08-02T16:58:48.011Z,46.40
2017-08-02T17:01:13.971Z,45.00
2017-08-02T17:03:39.937Z,45.60
2017-08-02T17:06:05.916Z,45.10
2017-08-02T17:08:32.575Z,45.90
2017-08-02T17:10:59.444Z,45.70
2017-08-02T17:13:25.415Z,45.90
2017-08-02T17:15:51.361Z,45.40
2017-08-02T17:18:17.270Z,46.40
2017-08-02T17:20:43.267Z,47.20
2017-08-02T17:23:09.207Z,47.40
2017-08-02T17:25:35.913Z,48.10
2017-08-02T17:28:01.851Z,48.10
2017-08-02T17:30:27.792Z,47.30
2017-08-02T17:32:53.845Z,48.50
2017-08-02T17:35:19.771Z,47.70
2017-08-02T17:37:45.698Z,46.30
2017-08-02T17:40:11.651Z,45.70
2017-08-02T17:42:37.606Z,47.30
2017-08-02T17:45:03.548Z,48.00
2017-08-02T17:47:29.487Z,48.50
2017-08-02T17:49:55.429Z,48.10
2017-08-02T17:52:24.439Z,48.70
2017-08-02T17:54:50.428Z,47.40
2017-08-02T17:57:16.351Z,48.70
2017-08-02T17:59:42.255Z,49.60
2017-08-02T18:02:08.234Z,49.80
2017-08-02T18:04:34.979Z,49.30
2017-08-02T18:07:00.930Z,49.30
2017-08-02T18:09:26.879Z,48.50
2017-08-02T18:11:52.819Z,49.10
2017-08-02T18:14:18.885Z,49.10
2017-08-02T18:16:44.843Z,49.90
2017-08-02T18:19:10.859Z,50.10
2017-08-02T18:21:36.787Z,50.00
2017-08-02T18:24:02.729Z,50.00
2017-08-02T18:26:28.699Z,50.40
2017-08-02T18:28:54.666Z,50.60
2017-08-02T18:31:20.603Z,50.90
2017-08-02T18:33:46.561Z,51.20
2017-08-02T18:36:12.511Z,51.80
2017-08-02T18:38:38.859Z,52.20
2017-08-02T18:41:04.821Z,52.70
2017-08-02T18:43:30.809Z,52.90
2017-08-02T18:45:56.807Z,54.00
2017-08-02T18:48:22.755Z,53.80
2017-08-02T18:50:48.705Z,54.30
2017-08-02T18:53:14.645Z,54.60
2017-08-02T18:55:40.623Z,54.50
2017-08-02T18:58:07.305Z,55.50
2017-08-02T19:00:33.325Z,54.90
2017-08-02T19:02:59.241Z,55.30
2017-08-02T19:05:25.220Z,55.70
2017-08-02T19:07:51.920Z,55.20
2017-08-02T19:10:17.885Z,55.30
2017-08-02T19:12:43.863Z,55.20
2017-08-02T19:15:09.831Z,55.00
2017-08-02T19:17:36.747Z,55.20
2017-08-02T19:20:02.693Z,55.10
2017-08-02T19:22:28.703Z,55.40
2017-08-02T19:24:54.647Z,55.60
2017-08-02T19:27:20.644Z,55.80
2017-08-02T19:29:46.590Z,56.20
2017-08-02T19:32:13.263Z,57.60
2017-08-02T19:34:39.179Z,57.60
2017-08-02T19:37:05.994Z,58.00
2017-08-02T19:39:31.960Z,58.40
2017-08-02T19:41:57.893Z,58.10
2017-08-02T19:44:23.835Z,58.30
2017-08-02T19:46:49.886Z,58.90
2017-08-02T19:49:15.804Z,59.30
2017-08-02T19:51:41.723Z,59.50
2017-08-02T19:54:08.412Z,60.20
2017-08-02T19:56:34.363Z,60.10
2017-08-02T19:59:00.313Z,60.40
2017-08-02T20:01:26.269Z,60.60
2017-08-02T20:03:52.257Z,60.90
2017-08-02T20:06:18.192Z,61.30
2017-08-02T20:08:44.175Z,61.40
2017-08-02T20:11:10.127Z,61.40
2017-08-02T20:13:36.060Z,61.80
2017-08-02T20:16:02.080Z,61.60
2017-08-02T20:18:27.994Z,61.80
2017-08-02T20:20:53.935Z,62.00
2017-08-02T20:23:19.870Z,62.40
2017-08-02T20:25:45.814Z,62.80
2017-08-02T20:28:12.495Z,63.50
2017-08-02T20:30:38.530Z,63.50
2017-08-02T20:33:04.495Z,63.50
2017-08-02T20:35:31.416Z,63.90
2017-08-02T20:37:57.323Z,63.90
2017-08-02T20:40:23.235Z,64.20
2017-08-02T20:42:49.202Z,64.20
2017-08-02T20:45:15.122Z,64.10
2017-08-02T20:47:41.059Z,63.50
2017-08-02T20:50:07.018Z,63.20
2017-08-02T20:52:32.968Z,63.70
2017-08-02T20:54:58.896Z,64.30
2017-08-02T20:57:24.860Z,64.80
2017-08-02T20:59:50.803Z,65.30
2017-08-02T21:02:16.774Z,65.20
2017-08-02T21:04:43.469Z,65.90
2017-08-02T21:07:09.423Z,65.90
2017-08-02T21:09:36.368Z,66.00
2017-08-02T21:12:02.332Z,66.30
2017-08-02T21:14:28.312Z,66.40
2017-08-02T21:16:54.231Z,66.70
2017-08-02T21:19:20.159Z,67.00
2017-08-02T21:21:46.128Z,67.10
2017-08-02T21:24:12.075Z,66.90
2017-08-02T21:26:38.057Z,67.20
2017-08-02T21:29:04.790Z,67.40
2017-08-02T21:31:30.727Z,67.40
2017-08-02T21:33:56.666Z,67.60
2017-08-02T21:36:22.585Z,68.20
2017-08-02T21:38:48.535Z,68.60
2017-08-02T21:41:14.508Z,69.10
2017-08-02T21:43:40.453Z,69.40
2017-08-02T21:46:06.447Z,69.80
2017-08-02T21:48:32.391Z,69.90
2017-08-02T21:50:58.338Z,69.60
2017-08-02T21:53:24.268Z,70.30
2017-08-02T21:55:50.244Z,70.70
2017-08-02T21:58:16.183Z,70.80
2017-08-02T22:00:42.132Z,70.80
2017-08-02T22:03:08.078Z,71.20
2017-08-02T22:05:34.031Z,72.10
2017-08-02T22:08:00.004Z,72.70
2017-08-02T22:10:26.676Z,73.00
2017-08-02T22:12:52.755Z,73.00
2017-08-02T22:15:18.719Z,73.20
2017-08-02T22:17:44.674Z,73.00
2017-08-02T22:20:10.587Z,73.30
2017-08-02T22:22:36.540Z,73.40
2017-08-02T22:25:02.492Z,73.80
2017-08-02T22:27:28.424Z,74.10
2017-08-02T22:29:54.359Z,73.90
2017-08-02T22:32:20.270Z,73.80
2017-08-02T22:34:46.264Z,74.30
2017-08-02T22:37:12.251Z,75.00
2017-08-02T22:39:38.204Z,75.00
2017-08-02T22:42:04.217Z,75.00
2017-08-02T22:44:30.126Z,75.40
2017-08-02T22:46:56.084Z,75.10
2017-08-02T22:49:22.073Z,74.90
2017-08-02T22:51:48.053Z,75.00
2017-08-02T22:54:14.016Z,74.80
2017-08-02T22:56:40.008Z,74.70
2017-08-02T22:59:05.972Z,75.00
2017-08-02T23:01:31.966Z,75.40
2017-08-02T23:03:57.883Z,75.50
2017-08-02T23:06:23.836Z,75.60
2017-08-02T23:08:49.792Z,75.60
2017-08-02T23:11:15.721Z,75.70
2017-08-02T23:13:41.727Z,76.20
2017-08-02T23:16:07.644Z,76.30
2017-08-02T23:18:33.601Z,76.50
2017-08-02T23:20:59.514Z,76.80
2017-08-02T23:23:25.472Z,77.00
2017-08-02T23:25:51.427Z,77.00
2017-08-02T23:28:17.352Z,77.30
2017-08-02T23:30:43.315Z,77.60
2017-08-02T23:33:09.256Z,78.10
2017-08-02T23:35:35.179Z,79.00
2017-08-02T23:38:01.113Z,79.40
2017-08-02T23:40:27.028Z,79.90
2017-08-02T23:42:53.033Z,80.10
2017-08-02T23:45:19.680Z,79.80
2017-08-02T23:47:45.606Z,79.90
2017-08-02T23:50:11.556Z,79.50
2017-08-02T23:52:37.492Z,79.10
2017-08-02T23:55:03.570Z,78.80
2017-08-02T23:57:29.482Z,79.00
2017-08-02T23:59:57.146Z,79.80
